createdAt,value
2018-03-29T00:02:02.791Z,26.77
2018-03-29T00:04:29.311Z,27.13
2018-03-29T00:06:55.787Z,27.77
2018-03-29T00:09:22.262Z,26.60
2018-03-29T00:11:48.770Z,27.07
2018-03-29T00:14:15.265Z,26.07
2018-03-29T00:16:41.869Z,27.03
2018-03-29T00:19:08.361Z,26.93
2018-03-29T00:21:34.896Z,27.47
2018-03-29T00:24:01.405Z,27.27
2018-03-29T00:26:27.902Z,25.70
2018-03-29T00:28:54.448Z,27.20
2018-03-29T00:31:20.989Z,27.43
2018-03-29T00:33:47.489Z,26.90
2018-03-29T00:36:14.003Z,27.20
2018-03-29T00:38:40.493Z,28.63
2018-03-29T00:41:06.986Z,27.23
2018-03-29T00:43:33.490Z,26.60
2018-03-29T00:45:59.969Z,25.43
2018-03-29T00:48:27.211Z,27.20
2018-03-29T00:50:53.695Z,26.87
2018-03-29T00:53:32.302Z,27.63
2018-03-29T00:55:58.793Z,27.33
2018-03-29T00:58:25.313Z,27.40
2018-03-29T01:00:51.785Z,27.80
2018-03-29T01:03:18.997Z,27.40
2018-03-29T01:05:45.561Z,26.67
2018-03-29T01:08:12.057Z,26.87
2018-03-29T01:10:38.588Z,28.10
2018-03-29T01:13:05.092Z,28.03
2018-03-29T01:15:31.578Z,27.33
2018-03-29T01:17:58.078Z,28.60
2018-03-29T01:20:24.574Z,30.37
2018-03-29T01:22:51.817Z,27.73
2018-03-29T01:25:18.350Z,27.37
2018-03-29T01:27:44.919Z,26.63
2018-03-29T01:30:11.402Z,28.70
2018-03-29T01:32:37.972Z,28.80
2018-03-29T01:35:05.205Z,26.67
2018-03-29T01:37:31.688Z,26.80
2018-03-29T01:39:58.178Z,28.07
2018-03-29T01:42:25.431Z,29.20
2018-03-29T01:44:52.768Z,28.50
2018-03-29T01:47:19.234Z,28.20
2018-03-29T01:49:45.733Z,28.93
2018-03-29T01:52:12.250Z,29.30
2018-03-29T01:54:38.730Z,25.77
2018-03-29T01:57:05.199Z,29.07
2018-03-29T01:59:31.697Z,27.80
2018-03-29T02:01:58.193Z,27.80
2018-03-29T02:04:24.765Z,28.17
2018-03-29T02:06:51.282Z,28.23
2018-03-29T02:09:17.892Z,28.27
2018-03-29T02:11:44.398Z,27.67
2018-03-29T02:14:11.624Z,27.50
2018-03-29T02:16:38.120Z,25.63
2018-03-29T02:19:04.634Z,27.50
2018-03-29T02:21:31.132Z,27.80
2018-03-29T02:23:57.638Z,26.30
2018-03-29T02:26:24.166Z,26.77
2018-03-29T02:28:50.682Z,28.03
2018-03-29T02:31:17.205Z,30.07
2018-03-29T02:33:43.704Z,28.30
2018-03-29T02:36:11.025Z,27.53
2018-03-29T02:38:37.550Z,28.20
2018-03-29T02:41:04.797Z,26.53
2018-03-29T02:43:31.301Z,28.17
2018-03-29T02:45:57.795Z,27.17
2018-03-29T02:48:24.337Z,27.73
2018-03-29T02:50:50.863Z,27.27
2018-03-29T02:53:17.374Z,28.80
2018-03-29T02:55:43.898Z,26.93
2018-03-29T02:58:10.394Z,28.83
2018-03-29T03:00:36.922Z,28.70
2018-03-29T03:03:03.407Z,27.93
2018-03-29T03:05:29.897Z,29.00
2018-03-29T03:07:56.498Z,29.87
2018-03-29T03:10:23.043Z,31.33
2018-03-29T03:12:49.516Z,28.83
2018-03-29T03:15:16.751Z,28.90
2018-03-29T03:17:43.247Z,29.70
2018-03-29T03:20:09.743Z,28.67
2018-03-29T03:22:36.268Z,26.97
2018-03-29T03:25:02.818Z,26.73
2018-03-29T03:27:29.322Z,28.07
2018-03-29T03:29:55.809Z,27.90
2018-03-29T03:32:22.351Z,28.10
2018-03-29T03:34:48.850Z,28.07
2018-03-29T03:37:15.315Z,28.07
2018-03-29T03:39:41.797Z,27.53
2018-03-29T03:42:08.303Z,26.73
2018-03-29T03:44:34.807Z,27.63
2018-03-29T03:47:02.043Z,28.93
2018-03-29T03:49:29.295Z,29.23
2018-03-29T03:51:55.803Z,29.13
2018-03-29T03:54:22.302Z,27.77
2018-03-29T03:56:48.851Z,27.60
2018-03-29T03:59:15.338Z,26.80
2018-03-29T04:01:42.557Z,29.17
2018-03-29T04:04:09.057Z,28.50
2018-03-29T04:06:35.542Z,27.47
2018-03-29T04:09:02.094Z,28.73
2018-03-29T04:11:28.657Z,28.70
2018-03-29T04:13:55.133Z,28.40
2018-03-29T04:16:23.285Z,27.40
2018-03-29T04:18:49.779Z,27.23
2018-03-29T04:21:17.041Z,27.33
2018-03-29T04:23:44.285Z,26.80
2018-03-29T04:26:11.511Z,26.93
2018-03-29T04:28:38.044Z,26.40
2018-03-29T04:31:04.596Z,27.27
2018-03-29T04:33:31.203Z,26.77
2018-03-29T04:35:57.686Z,26.67
2018-03-29T04:38:24.200Z,26.47
2018-03-29T04:40:50.689Z,26.47
2018-03-29T04:43:17.164Z,25.27
2018-03-29T04:45:43.655Z,25.83
2018-03-29T04:48:10.155Z,24.90
2018-03-29T04:50:37.403Z,26.63
2018-03-29T04:53:04.664Z,26.33
2018-03-29T04:55:31.965Z,27.83
2018-03-29T04:57:59.185Z,26.83
2018-03-29T05:00:25.701Z,26.33
2018-03-29T05:02:52.945Z,25.23
2018-03-29T05:05:19.469Z,26.47
2018-03-29T05:07:46.000Z,26.90
2018-03-29T05:10:12.585Z,27.10
2018-03-29T05:12:39.101Z,27.87
2018-03-29T05:15:06.352Z,28.03
2018-03-29T05:17:32.951Z,26.30
2018-03-29T05:19:59.454Z,27.43
2018-03-29T05:22:26.065Z,27.77
2018-03-29T05:24:52.569Z,28.17
2018-03-29T05:27:19.208Z,26.00
2018-03-29T05:29:45.688Z,27.17
2018-03-29T05:32:12.244Z,27.90
2018-03-29T05:34:38.733Z,27.90
2018-03-29T05:37:05.967Z,27.33
2018-03-29T05:39:32.480Z,28.97
2018-03-29T05:41:59.086Z,29.33
2018-03-29T05:44:25.613Z,29.93
2018-03-29T05:46:52.140Z,29.30
2018-03-29T05:49:18.599Z,29.00
2018-03-29T05:51:45.127Z,28.90
2018-03-29T05:54:11.655Z,26.80
2018-03-29T05:56:38.255Z,27.67
2018-03-29T05:59:04.738Z,26.83
2018-03-29T06:01:31.282Z,26.83
2018-03-29T06:03:57.758Z,28.00
2018-03-29T06:06:24.245Z,27.40
2018-03-29T06:08:50.772Z,28.10
2018-03-29T06:11:17.283Z,26.90
2018-03-29T06:13:44.546Z,28.07
2018-03-29T06:16:16.637Z,25.47
2018-03-29T06:18:43.190Z,25.33
2018-03-29T06:21:09.709Z,24.40
2018-03-29T06:23:36.215Z,23.87
2018-03-29T06:26:02.778Z,24.80
2018-03-29T06:28:29.270Z,24.13
2018-03-29T06:30:55.747Z,24.93
2018-03-29T06:33:22.308Z,25.07
2018-03-29T06:35:48.826Z,26.13
2018-03-29T06:38:15.318Z,23.30
2018-03-29T06:40:41.832Z,25.53
2018-03-29T06:43:08.351Z,24.97
2018-03-29T06:45:34.846Z,24.87
2018-03-29T06:48:01.343Z,24.50
2018-03-29T06:50:27.905Z,24.37
2018-03-29T06:52:54.422Z,23.77
2018-03-29T06:55:20.983Z,23.70
2018-03-29T06:57:47.486Z,23.47
2018-03-29T07:00:13.962Z,23.20
2018-03-29T07:02:40.487Z,23.97
2018-03-29T07:05:06.972Z,24.03
2018-03-29T07:07:33.513Z,23.97
2018-03-29T07:09:59.993Z,23.47
2018-03-29T07:12:26.497Z,23.30
2018-03-29T07:14:53.066Z,23.57
2018-03-29T07:17:20.302Z,23.73
2018-03-29T07:19:47.582Z,23.77
2018-03-29T07:22:14.057Z,24.37
2018-03-29T07:24:40.549Z,22.17
2018-03-29T07:27:07.057Z,24.13
2018-03-29T07:29:33.561Z,23.17
2018-03-29T07:32:00.073Z,23.67
2018-03-29T07:34:26.556Z,23.63
2018-03-29T07:36:53.075Z,25.17
2018-03-29T07:39:19.599Z,23.10
2018-03-29T07:41:46.104Z,23.53
2018-03-29T07:44:12.646Z,22.13
2018-03-29T07:46:39.101Z,23.60
2018-03-29T07:49:05.580Z,23.17
2018-03-29T07:51:32.129Z,23.67
2018-03-29T07:53:59.358Z,23.30
2018-03-29T07:56:26.588Z,22.27
2018-03-29T07:58:53.144Z,22.33
2018-03-29T08:01:19.653Z,22.43
2018-03-29T08:03:46.136Z,22.33
2018-03-29T08:06:12.716Z,22.00
2018-03-29T08:08:39.231Z,22.90
2018-03-29T08:11:05.720Z,22.27
2018-03-29T08:13:32.215Z,24.67
2018-03-29T08:15:58.738Z,23.47
2018-03-29T08:18:25.230Z,24.93
2018-03-29T08:20:51.902Z,23.97
2018-03-29T08:23:18.593Z,24.23
2018-03-29T08:25:45.295Z,24.57
2018-03-29T08:28:12.145Z,23.77
2018-03-29T08:30:38.608Z,24.50
2018-03-29T08:33:05.100Z,29.07
2018-03-29T08:35:31.580Z,24.40
2018-03-29T08:37:58.102Z,25.10
2018-03-29T08:40:24.640Z,25.57
2018-03-29T08:42:51.203Z,25.73
2018-03-29T08:45:18.463Z,25.17
2018-03-29T08:47:45.718Z,22.20
2018-03-29T08:50:13.059Z,23.20
2018-03-29T08:52:39.547Z,23.73
2018-03-29T08:55:06.183Z,24.20
2018-03-29T08:57:32.791Z,23.97
2018-03-29T08:59:59.448Z,27.30
2018-03-29T09:02:25.927Z,23.90
2018-03-29T09:04:52.407Z,23.00
2018-03-29T09:07:18.879Z,22.03
2018-03-29T09:09:45.358Z,21.83
2018-03-29T09:12:12.587Z,24.00
2018-03-29T09:14:39.173Z,23.50
2018-03-29T09:17:05.670Z,22.87
2018-03-29T09:19:32.208Z,24.17
2018-03-29T09:21:58.722Z,23.67
2018-03-29T09:24:25.196Z,22.93
2018-03-29T09:26:51.673Z,24.90
2018-03-29T09:29:19.108Z,24.03
2018-03-29T09:31:45.795Z,22.00
2018-03-29T09:34:12.379Z,23.47
2018-03-29T09:36:38.965Z,22.90
2018-03-29T09:39:05.620Z,22.70
2018-03-29T09:41:32.152Z,23.23
2018-03-29T09:43:58.743Z,21.63
2018-03-29T09:46:25.234Z,22.27
2018-03-29T09:48:51.707Z,22.93
2018-03-29T09:51:18.231Z,22.37
2018-03-29T09:53:44.766Z,21.13
2018-03-29T09:56:11.240Z,20.77
2018-03-29T09:58:37.723Z,22.67
2018-03-29T10:01:10.257Z,22.30
2018-03-29T10:03:38.727Z,21.20
2018-03-29T10:06:05.266Z,21.03
2018-03-29T10:08:31.748Z,21.70
2018-03-29T10:10:58.276Z,20.63
2018-03-29T10:13:24.729Z,20.97
2018-03-29T10:15:51.215Z,22.33
2018-03-29T10:18:17.695Z,22.23
2018-03-29T10:20:44.317Z,23.23
2018-03-29T10:23:10.847Z,21.47
2018-03-29T10:25:37.347Z,21.17
2018-03-29T10:28:03.838Z,20.50
2018-03-29T10:30:31.103Z,23.53
2018-03-29T10:32:57.613Z,22.57
2018-03-29T10:35:24.847Z,23.33
2018-03-29T10:37:51.324Z,24.30
2018-03-29T10:40:17.856Z,24.07
2018-03-29T10:42:44.428Z,25.93
2018-03-29T10:45:11.864Z,27.00
2018-03-29T10:47:38.370Z,30.73
2018-03-29T10:50:04.918Z,28.67
2018-03-29T10:52:31.436Z,26.73
2018-03-29T10:54:57.986Z,24.87
2018-03-29T10:57:24.546Z,24.20
2018-03-29T10:59:51.081Z,22.77
2018-03-29T11:02:17.608Z,24.60
2018-03-29T11:04:44.093Z,24.80
2018-03-29T11:07:10.616Z,25.80
2018-03-29T11:09:37.118Z,23.37
2018-03-29T11:12:03.594Z,27.07
2018-03-29T11:14:30.192Z,27.37
2018-03-29T11:16:56.669Z,26.37
2018-03-29T11:19:23.194Z,24.53
2018-03-29T11:21:50.429Z,23.20
2018-03-29T11:24:16.978Z,23.43
2018-03-29T11:26:43.462Z,22.37
2018-03-29T11:29:09.959Z,23.13
2018-03-29T11:31:36.446Z,22.70
2018-03-29T11:34:02.938Z,22.40
2018-03-29T11:36:29.465Z,22.90
2018-03-29T11:38:56.004Z,22.43
2018-03-29T11:41:22.517Z,21.03
2018-03-29T11:43:49.068Z,20.63
2018-03-29T11:46:15.551Z,21.50
2018-03-29T11:48:42.061Z,23.33
2018-03-29T11:51:09.288Z,22.10
2018-03-29T11:53:35.791Z,21.50
2018-03-29T11:56:02.319Z,23.73
2018-03-29T11:58:28.805Z,22.53
2018-03-29T12:00:55.301Z,24.03
2018-03-29T12:03:21.800Z,22.33
2018-03-29T12:05:49.034Z,23.67
2018-03-29T12:08:15.543Z,23.67
2018-03-29T12:10:42.088Z,22.07
2018-03-29T12:13:09.334Z,22.53
2018-03-29T12:15:36.556Z,23.77
2018-03-29T12:18:03.047Z,24.87
2018-03-29T12:20:30.579Z,25.37
2018-03-29T12:22:57.079Z,23.67
2018-03-29T12:25:23.588Z,22.57
2018-03-29T12:27:50.849Z,22.47
2018-03-29T12:30:18.079Z,23.03
2018-03-29T12:32:44.613Z,22.53
2018-03-29T12:35:11.149Z,22.87
2018-03-29T12:37:37.689Z,23.97
2018-03-29T12:40:04.933Z,23.20
2018-03-29T12:42:31.465Z,22.73
2018-03-29T12:44:58.022Z,24.00
2018-03-29T12:47:25.302Z,26.97
2018-03-29T12:49:51.779Z,25.30
2018-03-29T12:52:18.249Z,23.93
2018-03-29T12:54:56.871Z,23.00
2018-03-29T12:57:36.418Z,25.03
2018-03-29T13:00:03.016Z,25.57
2018-03-29T13:02:29.556Z,24.57
2018-03-29T13:04:56.130Z,24.57
2018-03-29T13:07:22.664Z,23.67
2018-03-29T13:09:49.169Z,25.20
2018-03-29T13:12:15.690Z,25.23
2018-03-29T13:14:42.261Z,24.00
2018-03-29T13:17:09.522Z,24.00
2018-03-29T13:19:36.116Z,24.57
2018-03-29T13:22:02.696Z,26.60
2018-03-29T13:24:29.312Z,25.30
2018-03-29T13:26:56.606Z,23.83
2018-03-29T13:29:23.099Z,24.13
2018-03-29T13:31:49.573Z,22.17
2018-03-29T13:34:16.150Z,23.47
2018-03-29T13:36:42.688Z,24.63
2018-03-29T13:39:09.172Z,23.20
2018-03-29T13:41:35.654Z,23.63
2018-03-29T13:44:02.178Z,23.20
2018-03-29T13:46:29.407Z,22.77
2018-03-29T13:48:55.933Z,26.53
2018-03-29T13:51:22.466Z,24.53
2018-03-29T13:53:48.999Z,24.57
2018-03-29T13:56:15.538Z,24.27
2018-03-29T13:58:42.052Z,25.03
2018-03-29T14:01:09.276Z,23.97
2018-03-29T14:03:35.882Z,26.03
2018-03-29T14:06:02.423Z,25.43
2018-03-29T14:08:28.963Z,25.07
2018-03-29T14:10:55.438Z,25.03
2018-03-29T14:13:21.924Z,22.87
2018-03-29T14:15:48.485Z,25.30
2018-03-29T14:18:15.003Z,25.47
2018-03-29T14:20:41.500Z,24.80
2018-03-29T14:23:08.014Z,25.07
2018-03-29T14:25:35.260Z,27.93
2018-03-29T14:28:01.778Z,31.03
2018-03-29T14:30:28.285Z,29.00
2018-03-29T14:32:54.775Z,29.10
2018-03-29T14:35:22.018Z,24.07
2018-03-29T14:37:48.589Z,24.67
2018-03-29T14:40:15.085Z,27.73
2018-03-29T14:42:42.474Z,25.53
2018-03-29T14:45:09.018Z,26.30
2018-03-29T14:47:35.525Z,25.57
2018-03-29T14:50:02.036Z,25.07
2018-03-29T14:52:29.306Z,25.67
2018-03-29T14:54:55.869Z,25.77
2018-03-29T14:57:22.376Z,26.20
2018-03-29T14:59:48.876Z,27.73
2018-03-29T15:02:15.430Z,27.70
2018-03-29T15:04:41.940Z,27.27
2018-03-29T15:07:08.411Z,28.07
2018-03-29T15:09:34.905Z,28.73
2018-03-29T15:12:01.393Z,26.03
2018-03-29T15:14:28.640Z,31.17
2018-03-29T15:16:55.146Z,30.47
2018-03-29T15:19:21.624Z,28.83
2018-03-29T15:21:48.186Z,31.00
2018-03-29T15:24:14.691Z,28.10
2018-03-29T15:26:41.969Z,30.97
2018-03-29T15:29:08.506Z,31.20
2018-03-29T15:31:35.064Z,31.80
2018-03-29T15:34:01.531Z,31.00
2018-03-29T15:36:28.063Z,30.57
2018-03-29T15:38:54.571Z,32.13
2018-03-29T15:41:21.031Z,32.97
2018-03-29T15:43:47.541Z,30.87
2018-03-29T15:46:14.043Z,30.57
2018-03-29T15:48:40.578Z,32.20
2018-03-29T15:51:07.088Z,30.93
2018-03-29T15:53:33.605Z,31.83
2018-03-29T15:56:00.254Z,32.23
2018-03-29T15:58:26.751Z,30.20
2018-03-29T16:00:53.303Z,33.27
2018-03-29T16:03:20.557Z,29.80
2018-03-29T16:05:47.812Z,33.57
2018-03-29T16:08:14.773Z,30.87
2018-03-29T16:10:41.267Z,33.13
2018-03-29T16:13:07.807Z,33.50
2018-03-29T16:15:34.306Z,36.27
2018-03-29T16:18:01.601Z,36.07
2018-03-29T16:20:28.135Z,36.90
2018-03-29T16:22:54.652Z,37.07
2018-03-29T16:25:21.171Z,33.47
2018-03-29T16:27:47.691Z,35.97
2018-03-29T16:30:14.242Z,33.20
2018-03-29T16:32:41.490Z,34.90
2018-03-29T16:35:08.835Z,33.83
2018-03-29T16:37:36.092Z,37.50
2018-03-29T16:40:03.329Z,38.00
2018-03-29T16:42:29.974Z,35.50
2018-03-29T16:44:56.462Z,34.13
2018-03-29T16:47:22.970Z,38.13
2018-03-29T16:49:49.476Z,36.47
2018-03-29T16:52:16.725Z,35.97
2018-03-29T16:54:43.236Z,36.37
2018-03-29T16:57:09.783Z,36.07
2018-03-29T16:59:36.371Z,36.73
2018-03-29T17:02:02.920Z,36.97
2018-03-29T17:04:29.483Z,39.37
2018-03-29T17:06:56.022Z,39.13
2018-03-29T17:09:22.564Z,39.47
2018-03-29T17:11:49.160Z,38.90
2018-03-29T17:14:15.661Z,37.93
2018-03-29T17:16:42.951Z,36.40
2018-03-29T17:19:09.478Z,37.43
2018-03-29T17:21:35.994Z,34.67
2018-03-29T17:24:03.231Z,36.13
2018-03-29T17:26:29.718Z,37.50
2018-03-29T17:28:56.315Z,37.60
2018-03-29T17:31:22.835Z,37.30
2018-03-29T17:33:49.329Z,39.57
2018-03-29T17:36:15.870Z,39.80
2018-03-29T17:38:42.360Z,35.57
2018-03-29T17:41:09.580Z,37.33
2018-03-29T17:43:36.146Z,38.00
2018-03-29T17:46:03.354Z,37.30
2018-03-29T17:48:29.842Z,38.23
2018-03-29T17:50:56.422Z,37.43
2018-03-29T17:53:22.938Z,33.40
2018-03-29T17:55:49.427Z,37.00
2018-03-29T17:58:15.897Z,31.93
2018-03-29T18:00:42.377Z,34.80
2018-03-29T18:03:08.925Z,34.50
2018-03-29T18:05:35.397Z,34.43
2018-03-29T18:08:01.887Z,34.80
2018-03-29T18:10:28.362Z,30.03
2018-03-29T18:12:54.860Z,29.27
2018-03-29T18:15:21.322Z,30.37
2018-03-29T18:17:47.805Z,30.53
2018-03-29T18:20:14.842Z,29.27
2018-03-29T18:22:41.331Z,26.07
2018-03-29T18:25:08.558Z,25.57
2018-03-29T18:27:35.047Z,25.77
2018-03-29T18:30:01.626Z,25.37
2018-03-29T18:32:28.129Z,23.70
2018-03-29T18:34:54.599Z,24.70
2018-03-29T18:37:21.118Z,23.23
2018-03-29T18:39:47.634Z,19.10
2018-03-29T18:42:14.177Z,17.13
2018-03-29T18:44:40.758Z,17.90
2018-03-29T18:47:07.987Z,18.20
2018-03-29T18:49:34.477Z,18.47
2018-03-29T18:52:00.955Z,18.07
2018-03-29T18:54:27.423Z,19.70
2018-03-29T18:56:54.701Z,20.63
2018-03-29T18:59:21.179Z,19.13
2018-03-29T19:01:47.704Z,17.67
2018-03-29T19:04:14.203Z,18.30
2018-03-29T19:06:40.690Z,16.63
2018-03-29T19:09:07.210Z,13.33
2018-03-29T19:11:33.700Z,10.90
2018-03-29T19:14:00.935Z,8.77
2018-03-29T19:16:28.152Z,8.87
2018-03-29T19:18:54.637Z,7.73
2018-03-29T19:21:21.115Z,10.77
2018-03-29T19:23:47.633Z,11.37
2018-03-29T19:26:14.117Z,11.13
2018-03-29T19:28:40.607Z,11.10
2018-03-29T19:31:07.113Z,12.90
2018-03-29T19:33:33.609Z,12.47
2018-03-29T19:36:00.143Z,12.80
2018-03-29T19:38:26.666Z,11.20
2018-03-29T19:40:53.172Z,11.93
2018-03-29T19:43:20.425Z,12.23
2018-03-29T19:45:46.910Z,12.57
2018-03-29T19:48:13.408Z,12.27
2018-03-29T19:50:39.929Z,9.83
2018-03-29T19:53:06.453Z,10.33
2018-03-29T19:55:32.948Z,10.30
2018-03-29T19:57:59.479Z,9.80
2018-03-29T20:00:25.938Z,9.00
2018-03-29T20:02:52.486Z,9.67
2018-03-29T20:05:19.871Z,8.97
2018-03-29T20:07:46.384Z,9.27
2018-03-29T20:10:13.069Z,9.50
2018-03-29T20:12:39.760Z,9.20
2018-03-29T20:15:06.363Z,8.60
2018-03-29T20:17:32.933Z,8.40
2018-03-29T20:19:59.520Z,8.27
2018-03-29T20:22:26.090Z,8.37
2018-03-29T20:24:53.365Z,7.20
2018-03-29T20:27:19.896Z,8.53
2018-03-29T20:29:46.431Z,6.60
2018-03-29T20:32:12.970Z,5.40
2018-03-29T20:34:39.545Z,4.80
2018-03-29T20:37:06.122Z,4.30
2018-03-29T20:39:32.680Z,4.03
2018-03-29T20:41:59.252Z,3.27
2018-03-29T20:44:25.811Z,2.87
2018-03-29T20:46:52.453Z,2.60
2018-03-29T20:49:19.613Z,1.60
2018-03-29T20:51:49.462Z,1.57
2018-03-29T20:54:15.974Z,1.67
2018-03-29T20:56:43.226Z,1.50
2018-03-29T20:59:10.607Z,1.77
2018-03-29T21:01:37.282Z,1.47
2018-03-29T21:04:03.948Z,1.70
2018-03-29T21:06:31.243Z,1.50
2018-03-29T21:08:57.882Z,1.57
2018-03-29T21:11:24.414Z,1.30
2018-03-29T21:13:50.894Z,1.50
2018-03-29T21:16:17.407Z,1.03
2018-03-29T21:18:43.958Z,1.40
2018-03-29T21:21:10.533Z,0.90
2018-03-29T21:23:37.033Z,1.10
2018-03-29T21:26:04.468Z,1.07
2018-03-29T21:28:31.019Z,1.20
2018-03-29T21:30:57.501Z,1.00
2018-03-29T21:33:23.992Z,0.93
2018-03-29T21:35:50.458Z,0.93
2018-03-29T21:38:17.781Z,1.10
2018-03-29T21:40:44.306Z,0.90
2018-03-29T21:43:11.582Z,0.70
2018-03-29T21:45:38.080Z,0.80
2018-03-29T21:48:04.642Z,0.80
2018-03-29T21:50:31.144Z,0.80
2018-03-29T21:52:57.645Z,0.70
2018-03-29T21:55:24.162Z,1.10
2018-03-29T21:57:50.654Z,1.20
2018-03-29T22:00:17.157Z,0.80
2018-03-29T22:02:43.678Z,0.80
2018-03-29T22:05:10.957Z,1.00
2018-03-29T22:07:37.451Z,1.00
2018-03-29T22:10:03.996Z,0.90
2018-03-29T22:12:30.481Z,1.00
2018-03-29T22:14:57.001Z,0.70
2018-03-29T22:17:24.277Z,1.00
2018-03-29T22:19:51.457Z,0.90
2018-03-29T22:22:18.719Z,1.00
2018-03-29T22:24:45.207Z,1.00
2018-03-29T22:27:11.729Z,0.90
2018-03-29T22:29:38.495Z,0.93
2018-03-29T22:32:04.959Z,1.10
2018-03-29T22:34:31.444Z,0.90
2018-03-29T22:36:57.978Z,0.97
2018-03-29T22:39:24.461Z,0.87
2018-03-29T22:41:50.993Z,1.00
2018-03-29T22:44:17.486Z,0.90
2018-03-29T22:46:43.996Z,1.00
2018-03-29T22:49:11.255Z,0.93
2018-03-29T22:51:38.148Z,1.00
2018-03-29T22:54:04.729Z,1.00
2018-03-29T22:56:31.980Z,0.80
2018-03-29T22:58:58.506Z,1.33
2018-03-29T23:01:25.748Z,1.10
2018-03-29T23:03:52.215Z,1.10
2018-03-29T23:06:18.745Z,1.20
2018-03-29T23:08:47.020Z,1.20
2018-03-29T23:11:13.534Z,1.30
2018-03-29T23:13:40.755Z,1.30
2018-03-29T23:16:08.172Z,1.40
2018-03-29T23:18:35.702Z,1.53
2018-03-29T23:21:02.265Z,1.30
2018-03-29T23:23:28.786Z,1.20
2018-03-29T23:25:56.006Z,1.10
2018-03-29T23:28:22.479Z,0.90
2018-03-29T23:30:49.700Z,1.10
2018-03-29T23:33:16.182Z,0.77
2018-03-29T23:35:42.736Z,1.10
2018-03-29T23:38:09.217Z,1.03
2018-03-29T23:40:36.353Z,1.10
2018-03-29T23:43:02.893Z,1.30
2018-03-29T23:45:29.391Z,1.40
2018-03-29T23:47:55.865Z,1.50
2018-03-29T23:50:22.403Z,1.50
2018-03-29T23:52:48.899Z,1.60
2018-03-29T23:55:15.386Z,1.47
2018-03-29T23:57:42.510Z,1.30
